KMQY  Smyrna Airport

Add Bookmark

Smyrna, Tennessee, United States

Status Useage
Operational Public
Latitude Longitude
36° 0' 32" N 86° 31' 12" W
36.008972 -86.520083
Local (DST -5) UTC (GMT -6)
Oct 21, 2014 06:57 Oct 21, 2014 11:57
Sunrise-Sunset Local UTC
Begin Civil Twilight 06:31 11:31
Sunrise 06:57 11:57
Sunset 06:03 23:03
End Civil Twilight 06:29 23:29

Current Weather

METAR Observed LIFR
KMQY 211120Z AUTO 00000KT 1/4SM FG CLR 06/06 A3005 Tue, Oct 21, 2014 @ 11:20 UTC
(37 Minutes ago)
Low Instrument Flight Rules
Wind Visibility Clouds Conditions
Calm 1/4 statute mile
  • Clear skies
  • Fog
Temperatures Readings Precipitation
Current Temp 6°C (43°F)
Dewpoint 6°C (43°F)
Humidity 100%
Altimeter 30.05"Hg
Sea Level Pressure 1018mb
Field Elevation 543'
None Recorded

Additional weather within a 50nm radius of KMQY

Map ICAO Location
KBNA 10.3nm N (312°)
KSYI 27.2nm S (173°)
KRNC 37.8nm E (119°)
KTHA 40nm S (161°)
KMRC 42.1nm S (230°)
KSRB 48.1nm E (086°)

24 Hour Weather History

Loading
-

24 Hour Weather Graphs

Loading
-

CheckWX.com is intended as a tool to help pilots better visualize weather data. It is not intended as a substitute for an official weather briefing obtained from a Flight Service Station. CheckWX.com does not meet the FAA requirements for an official pre-flight weather briefing. Therefore, it's important that pilots still call and obtain an official FSS pre-flight weather briefing.